sensor_id;sensor_type;location;lat;lon;timestamp;P1;durP1;ratioP1;P2;durP2;ratioP2
32094;SDS011;18608;53.688;10.748;2022-08-21T00:01:24;6.90;;;2.03;;
32094;SDS011;18608;53.688;10.748;2022-08-21T00:03:53;6.50;;;2.10;;
32094;SDS011;18608;53.688;10.748;2022-08-21T00:06:19;3.93;;;2.20;;
32094;SDS011;18608;53.688;10.748;2022-08-21T00:08:45;5.83;;;2.70;;
32094;SDS011;18608;53.688;10.748;2022-08-21T00:11:11;5.50;;;2.23;;
32094;SDS011;18608;53.688;10.748;2022-08-21T00:13:37;3.13;;;2.40;;
32094;SDS011;18608;53.688;10.748;2022-08-21T00:16:03;3.27;;;2.97;;
32094;SDS011;18608;53.688;10.748;2022-08-21T00:18:29;6.40;;;2.10;;
32094;SDS011;18608;53.688;10.748;2022-08-21T00:20:55;5.10;;;2.30;;
32094;SDS011;18608;53.688;10.748;2022-08-21T00:23:21;1.73;;;1.63;;
32094;SDS011;18608;53.688;10.748;2022-08-21T00:25:47;4.47;;;2.73;;
32094;SDS011;18608;53.688;10.748;2022-08-21T00:28:14;3.67;;;3.00;;
32094;SDS011;18608;53.688;10.748;2022-08-21T00:30:40;2.53;;;2.30;;
32094;SDS011;18608;53.688;10.748;2022-08-21T00:33:07;3.43;;;2.50;;
32094;SDS011;18608;53.688;10.748;2022-08-21T00:35:35;3.83;;;2.30;;
32094;SDS011;18608;53.688;10.748;2022-08-21T00:38:03;3.23;;;2.33;;
32094;SDS011;18608;53.688;10.748;2022-08-21T00:40:35;4.83;;;2.40;;
32094;SDS011;18608;53.688;10.748;2022-08-21T00:43:08;13.50;;;2.37;;
32094;SDS011;18608;53.688;10.748;2022-08-21T00:45:37;5.30;;;2.30;;
32094;SDS011;18608;53.688;10.748;2022-08-21T00:48:03;5.60;;;3.33;;
32094;SDS011;18608;53.688;10.748;2022-08-21T00:50:30;3.50;;;2.90;;
32094;SDS011;18608;53.688;10.748;2022-08-21T00:52:59;5.47;;;3.03;;
32094;SDS011;18608;53.688;10.748;2022-08-21T00:55:27;8.20;;;3.00;;
32094;SDS011;18608;53.688;10.748;2022-08-21T00:57:55;3.00;;;2.80;;
32094;SDS011;18608;53.688;10.748;2022-08-21T01:00:29;9.90;;;2.77;;
32094;SDS011;18608;53.688;10.748;2022-08-21T01:02:58;3.80;;;2.90;;
32094;SDS011;18608;53.688;10.748;2022-08-21T01:05:25;6.77;;;3.10;;
32094;SDS011;18608;53.688;10.748;2022-08-21T01:07:51;10.23;;;2.57;;
32094;SDS011;18608;53.688;10.748;2022-08-21T01:10:18;9.80;;;2.60;;
32094;SDS011;18608;53.688;10.748;2022-08-21T01:12:44;2.90;;;2.57;;
32094;SDS011;18608;53.688;10.748;2022-08-21T01:15:11;4.30;;;2.40;;
32094;SDS011;18608;53.688;10.748;2022-08-21T01:17:39;4.70;;;2.70;;
32094;SDS011;18608;53.688;10.748;2022-08-21T01:20:06;2.63;;;2.43;;
32094;SDS011;18608;53.688;10.748;2022-08-21T01:22:33;5.33;;;2.43;;
32094;SDS011;18608;53.688;10.748;2022-08-21T01:24:59;4.60;;;2.90;;
32094;SDS011;18608;53.688;10.748;2022-08-21T01:27:24;4.20;;;2.77;;
32094;SDS011;18608;53.688;10.748;2022-08-21T01:29:56;2.87;;;2.50;;
32094;SDS011;18608;53.688;10.748;2022-08-21T01:32:26;3.10;;;2.90;;
32094;SDS011;18608;53.688;10.748;2022-08-21T01:34:52;9.23;;;2.60;;
32094;SDS011;18608;53.688;10.748;2022-08-21T01:37:18;11.00;;;2.90;;
32094;SDS011;18608;53.688;10.748;2022-08-21T01:39:46;4.70;;;2.60;;
32094;SDS011;18608;53.688;10.748;2022-08-21T01:42:13;6.57;;;2.93;;
32094;SDS011;18608;53.688;10.748;2022-08-21T01:44:39;2.50;;;2.30;;
32094;SDS011;18608;53.688;10.748;2022-08-21T01:47:06;2.73;;;2.53;;
32094;SDS011;18608;53.688;10.748;2022-08-21T01:49:34;5.70;;;3.13;;
32094;SDS011;18608;53.688;10.748;2022-08-21T01:52:01;4.30;;;2.83;;
32094;SDS011;18608;53.688;10.748;2022-08-21T01:54:28;4.73;;;3.30;;
32094;SDS011;18608;53.688;10.748;2022-08-21T01:56:54;6.30;;;2.67;;
32094;SDS011;18608;53.688;10.748;2022-08-21T01:59:21;4.87;;;3.20;;
32094;SDS011;18608;53.688;10.748;2022-08-21T02:01:48;4.07;;;3.00;;
32094;SDS011;18608;53.688;10.748;2022-08-21T02:04:14;3.40;;;2.60;;
32094;SDS011;18608;53.688;10.748;2022-08-21T02:06:40;4.93;;;3.10;;
32094;SDS011;18608;53.688;10.748;2022-08-21T02:09:07;5.13;;;2.40;;
32094;SDS011;18608;53.688;10.748;2022-08-21T02:11:35;3.90;;;2.93;;
32094;SDS011;18608;53.688;10.748;2022-08-21T02:14:05;14.57;;;2.47;;
32094;SDS011;18608;53.688;10.748;2022-08-21T02:16:41;3.53;;;2.93;;
32094;SDS011;18608;53.688;10.748;2022-08-21T02:19:07;5.67;;;2.83;;
32094;SDS011;18608;53.688;10.748;2022-08-21T02:21:34;5.13;;;2.50;;
32094;SDS011;18608;53.688;10.748;2022-08-21T02:23:59;3.33;;;2.40;;
32094;SDS011;18608;53.688;10.748;2022-08-21T02:26:25;7.00;;;3.40;;
32094;SDS011;18608;53.688;10.748;2022-08-21T02:28:51;4.47;;;2.17;;
32094;SDS011;18608;53.688;10.748;2022-08-21T02:31:17;4.80;;;2.87;;
32094;SDS011;18608;53.688;10.748;2022-08-21T02:33:42;3.27;;;2.50;;
32094;SDS011;18608;53.688;10.748;2022-08-21T02:36:09;4.47;;;2.50;;
32094;SDS011;18608;53.688;10.748;2022-08-21T02:38:35;9.87;;;3.30;;
32094;SDS011;18608;53.688;10.748;2022-08-21T02:41:06;4.47;;;2.60;;
32094;SDS011;18608;53.688;10.748;2022-08-21T02:43:35;6.00;;;3.50;;
32094;SDS011;18608;53.688;10.748;2022-08-21T02:46:02;8.43;;;2.70;;
32094;SDS011;18608;53.688;10.748;2022-08-21T02:48:30;3.40;;;2.67;;
32094;SDS011;18608;53.688;10.748;2022-08-21T02:51:00;2.63;;;2.50;;
32094;SDS011;18608;53.688;10.748;2022-08-21T02:53:37;4.90;;;2.70;;
32094;SDS011;18608;53.688;10.748;2022-08-21T02:56:06;9.40;;;2.77;;
32094;SDS011;18608;53.688;10.748;2022-08-21T02:58:38;3.47;;;3.27;;
32094;SDS011;18608;53.688;10.748;2022-08-21T03:01:06;2.37;;;2.13;;
32094;SDS011;18608;53.688;10.748;2022-08-21T03:03:34;4.23;;;3.10;;
32094;SDS011;18608;53.688;10.748;2022-08-21T03:06:01;8.83;;;3.10;;
32094;SDS011;18608;53.688;10.748;2022-08-21T03:08:28;6.10;;;3.10;;
32094;SDS011;18608;53.688;10.748;2022-08-21T03:10:54;5.63;;;2.90;;
32094;SDS011;18608;53.688;10.748;2022-08-21T03:13:20;2.50;;;2.27;;
32094;SDS011;18608;53.688;10.748;2022-08-21T03:15:46;5.73;;;2.90;;
32094;SDS011;18608;53.688;10.748;2022-08-21T03:18:13;2.93;;;2.73;;
32094;SDS011;18608;53.688;10.748;2022-08-21T03:20:40;3.90;;;3.60;;
32094;SDS011;18608;53.688;10.748;2022-08-21T03:23:07;4.20;;;2.47;;
32094;SDS011;18608;53.688;10.748;2022-08-21T03:25:33;3.30;;;2.40;;
32094;SDS011;18608;53.688;10.748;2022-08-21T03:28:00;4.63;;;2.60;;
32094;SDS011;18608;53.688;10.748;2022-08-21T03:30:27;6.70;;;3.57;;
32094;SDS011;18608;53.688;10.748;2022-08-21T03:32:52;5.57;;;2.30;;
32094;SDS011;18608;53.688;10.748;2022-08-21T03:35:19;2.23;;;1.97;;
32094;SDS011;18608;53.688;10.748;2022-08-21T03:37:45;5.67;;;2.97;;
32094;SDS011;18608;53.688;10.748;2022-08-21T03:40:12;2.90;;;2.53;;
32094;SDS011;18608;53.688;10.748;2022-08-21T03:42:39;4.70;;;2.00;;
32094;SDS011;18608;53.688;10.748;2022-08-21T03:45:05;3.10;;;2.80;;
32094;SDS011;18608;53.688;10.748;2022-08-21T03:47:31;5.00;;;2.70;;
32094;SDS011;18608;53.688;10.748;2022-08-21T03:49:57;2.53;;;2.33;;
32094;SDS011;18608;53.688;10.748;2022-08-21T03:52:22;4.83;;;2.37;;
32094;SDS011;18608;53.688;10.748;2022-08-21T03:54:48;15.20;;;3.13;;
32094;SDS011;18608;53.688;10.748;2022-08-21T03:57:15;3.33;;;2.60;;
32094;SDS011;18608;53.688;10.748;2022-08-21T03:59:41;3.63;;;2.43;;
32094;SDS011;18608;53.688;10.748;2022-08-21T04:02:08;3.53;;;2.40;;
32094;SDS011;18608;53.688;10.748;2022-08-21T04:04:35;3.70;;;2.63;;
32094;SDS011;18608;53.688;10.748;2022-08-21T04:07:01;3.10;;;2.80;;
32094;SDS011;18608;53.688;10.748;2022-08-21T04:09:28;3.60;;;2.70;;
32094;SDS011;18608;53.688;10.748;2022-08-21T04:11:55;3.17;;;2.83;;
32094;SDS011;18608;53.688;10.748;2022-08-21T04:14:21;3.00;;;2.57;;
32094;SDS011;18608;53.688;10.748;2022-08-21T04:16:47;2.43;;;1.93;;
32094;SDS011;18608;53.688;10.748;2022-08-21T04:19:13;4.30;;;2.90;;
32094;SDS011;18608;53.688;10.748;2022-08-21T04:21:39;7.90;;;3.50;;
32094;SDS011;18608;53.688;10.748;2022-08-21T04:24:06;2.50;;;2.30;;
32094;SDS011;18608;53.688;10.748;2022-08-21T04:26:33;3.13;;;2.83;;
32094;SDS011;18608;53.688;10.748;2022-08-21T04:29:00;3.67;;;2.50;;
32094;SDS011;18608;53.688;10.748;2022-08-21T04:31:26;5.50;;;2.50;;
32094;SDS011;18608;53.688;10.748;2022-08-21T04:33:52;3.90;;;2.70;;
32094;SDS011;18608;53.688;10.748;2022-08-21T04:36:18;8.37;;;2.73;;
32094;SDS011;18608;53.688;10.748;2022-08-21T04:38:44;4.50;;;2.93;;
32094;SDS011;18608;53.688;10.748;2022-08-21T04:41:09;2.47;;;2.33;;
32094;SDS011;18608;53.688;10.748;2022-08-21T04:43:35;6.83;;;2.70;;
32094;SDS011;18608;53.688;10.748;2022-08-21T04:46:00;2.83;;;2.10;;
32094;SDS011;18608;53.688;10.748;2022-08-21T04:48:26;7.00;;;2.60;;
32094;SDS011;18608;53.688;10.748;2022-08-21T04:56:37;5.63;;;3.30;;
32094;SDS011;18608;53.688;10.748;2022-08-21T04:59:22;3.53;;;2.67;;
32094;SDS011;18608;53.688;10.748;2022-08-21T05:01:53;2.83;;;2.67;;
32094;SDS011;18608;53.688;10.748;2022-08-21T05:04:26;3.20;;;2.90;;
32094;SDS011;18608;53.688;10.748;2022-08-21T05:06:55;5.70;;;3.80;;
32094;SDS011;18608;53.688;10.748;2022-08-21T05:09:25;5.70;;;3.03;;
32094;SDS011;18608;53.688;10.748;2022-08-21T05:11:51;5.77;;;3.80;;
32094;SDS011;18608;53.688;10.748;2022-08-21T05:14:17;5.23;;;3.20;;
32094;SDS011;18608;53.688;10.748;2022-08-21T05:16:44;10.60;;;4.33;;
32094;SDS011;18608;53.688;10.748;2022-08-21T05:19:10;5.83;;;3.30;;
32094;SDS011;18608;53.688;10.748;2022-08-21T05:21:37;3.77;;;2.63;;
32094;SDS011;18608;53.688;10.748;2022-08-21T05:24:05;6.03;;;3.17;;
32094;SDS011;18608;53.688;10.748;2022-08-21T05:26:30;3.00;;;2.50;;
32094;SDS011;18608;53.688;10.748;2022-08-21T05:28:56;5.83;;;3.33;;
32094;SDS011;18608;53.688;10.748;2022-08-21T05:31:22;9.20;;;3.60;;
32094;SDS011;18608;53.688;10.748;2022-08-21T05:33:47;4.40;;;3.00;;
32094;SDS011;18608;53.688;10.748;2022-08-21T05:36:13;5.43;;;3.77;;
32094;SDS011;18608;53.688;10.748;2022-08-21T05:38:39;4.23;;;2.87;;
32094;SDS011;18608;53.688;10.748;2022-08-21T05:41:05;6.53;;;3.30;;
32094;SDS011;18608;53.688;10.748;2022-08-21T05:43:30;3.10;;;2.77;;
32094;SDS011;18608;53.688;10.748;2022-08-21T05:46:00;3.33;;;3.10;;
32094;SDS011;18608;53.688;10.748;2022-08-21T05:48:30;3.20;;;3.03;;
32094;SDS011;18608;53.688;10.748;2022-08-21T05:50:56;5.47;;;2.87;;
32094;SDS011;18608;53.688;10.748;2022-08-21T05:53:22;10.70;;;5.57;;
32094;SDS011;18608;53.688;10.748;2022-08-21T05:55:49;3.53;;;3.00;;
32094;SDS011;18608;53.688;10.748;2022-08-21T05:58:16;3.93;;;3.20;;
32094;SDS011;18608;53.688;10.748;2022-08-21T06:00:45;5.03;;;3.37;;
32094;SDS011;18608;53.688;10.748;2022-08-21T06:03:13;4.70;;;2.67;;
32094;SDS011;18608;53.688;10.748;2022-08-21T06:05:41;4.63;;;3.00;;
32094;SDS011;18608;53.688;10.748;2022-08-21T06:08:07;4.07;;;3.40;;
32094;SDS011;18608;53.688;10.748;2022-08-21T06:10:33;4.43;;;3.00;;
32094;SDS011;18608;53.688;10.748;2022-08-21T06:12:58;5.10;;;3.40;;
32094;SDS011;18608;53.688;10.748;2022-08-21T06:15:24;8.23;;;4.00;;
32094;SDS011;18608;53.688;10.748;2022-08-21T06:17:50;5.77;;;2.80;;
32094;SDS011;18608;53.688;10.748;2022-08-21T06:20:16;4.70;;;3.73;;
32094;SDS011;18608;53.688;10.748;2022-08-21T06:22:42;3.50;;;3.13;;
32094;SDS011;18608;53.688;10.748;2022-08-21T06:25:08;14.10;;;3.97;;
32094;SDS011;18608;53.688;10.748;2022-08-21T06:27:34;9.30;;;4.27;;
32094;SDS011;18608;53.688;10.748;2022-08-21T06:30:00;7.70;;;3.83;;
32094;SDS011;18608;53.688;10.748;2022-08-21T06:32:25;10.97;;;3.60;;
32094;SDS011;18608;53.688;10.748;2022-08-21T06:34:51;6.83;;;3.20;;
32094;SDS011;18608;53.688;10.748;2022-08-21T06:37:16;5.77;;;3.03;;
32094;SDS011;18608;53.688;10.748;2022-08-21T06:39:42;4.57;;;3.30;;
32094;SDS011;18608;53.688;10.748;2022-08-21T06:42:12;7.13;;;2.70;;
32094;SDS011;18608;53.688;10.748;2022-08-21T06:44:39;6.47;;;2.30;;
32094;SDS011;18608;53.688;10.748;2022-08-21T06:47:04;9.63;;;4.97;;
32094;SDS011;18608;53.688;10.748;2022-08-21T06:49:30;7.40;;;2.33;;
32094;SDS011;18608;53.688;10.748;2022-08-21T06:51:55;4.70;;;2.40;;
32094;SDS011;18608;53.688;10.748;2022-08-21T06:54:21;2.47;;;2.10;;
32094;SDS011;18608;53.688;10.748;2022-08-21T06:56:47;6.40;;;1.97;;
32094;SDS011;18608;53.688;10.748;2022-08-21T06:59:12;5.77;;;2.30;;
32094;SDS011;18608;53.688;10.748;2022-08-21T07:01:38;3.20;;;1.93;;
32094;SDS011;18608;53.688;10.748;2022-08-21T07:04:04;8.97;;;2.43;;
32094;SDS011;18608;53.688;10.748;2022-08-21T07:06:30;6.67;;;2.50;;
32094;SDS011;18608;53.688;10.748;2022-08-21T07:08:56;3.93;;;2.57;;
32094;SDS011;18608;53.688;10.748;2022-08-21T07:11:22;2.73;;;2.07;;
32094;SDS011;18608;53.688;10.748;2022-08-21T07:13:49;6.60;;;2.13;;
32094;SDS011;18608;53.688;10.748;2022-08-21T07:16:17;8.07;;;1.77;;
32094;SDS011;18608;53.688;10.748;2022-08-21T07:18:43;2.80;;;1.93;;
32094;SDS011;18608;53.688;10.748;2022-08-21T07:21:09;3.37;;;2.07;;
32094;SDS011;18608;53.688;10.748;2022-08-21T07:23:42;2.20;;;1.77;;
32094;SDS011;18608;53.688;10.748;2022-08-21T07:26:11;3.47;;;1.80;;
32094;SDS011;18608;53.688;10.748;2022-08-21T07:28:38;3.57;;;1.60;;
32094;SDS011;18608;53.688;10.748;2022-08-21T07:31:04;3.63;;;2.17;;
32094;SDS011;18608;53.688;10.748;2022-08-21T07:33:31;7.50;;;1.97;;
32094;SDS011;18608;53.688;10.748;2022-08-21T07:35:58;2.87;;;1.73;;
32094;SDS011;18608;53.688;10.748;2022-08-21T07:38:24;3.50;;;1.43;;
32094;SDS011;18608;53.688;10.748;2022-08-21T07:40:51;6.90;;;1.23;;
32094;SDS011;18608;53.688;10.748;2022-08-21T07:43:19;4.63;;;1.70;;
32094;SDS011;18608;53.688;10.748;2022-08-21T07:45:46;4.57;;;1.43;;
32094;SDS011;18608;53.688;10.748;2022-08-21T07:48:14;6.10;;;1.63;;
32094;SDS011;18608;53.688;10.748;2022-08-21T07:50:40;1.83;;;1.40;;
32094;SDS011;18608;53.688;10.748;2022-08-21T07:53:06;1.70;;;1.50;;
32094;SDS011;18608;53.688;10.748;2022-08-21T07:55:33;4.80;;;1.70;;
32094;SDS011;18608;53.688;10.748;2022-08-21T07:57:58;9.20;;;1.87;;
32094;SDS011;18608;53.688;10.748;2022-08-21T08:00:25;6.97;;;1.50;;
32094;SDS011;18608;53.688;10.748;2022-08-21T08:02:53;4.90;;;1.90;;
32094;SDS011;18608;53.688;10.748;2022-08-21T08:05:21;2.90;;;1.40;;
32094;SDS011;18608;53.688;10.748;2022-08-21T08:07:49;4.07;;;1.53;;
32094;SDS011;18608;53.688;10.748;2022-08-21T08:10:15;2.80;;;2.57;;
32094;SDS011;18608;53.688;10.748;2022-08-21T08:12:42;4.40;;;1.50;;
32094;SDS011;18608;53.688;10.748;2022-08-21T08:15:10;3.90;;;1.80;;
32094;SDS011;18608;53.688;10.748;2022-08-21T08:17:39;3.60;;;1.33;;
32094;SDS011;18608;53.688;10.748;2022-08-21T08:20:08;3.27;;;1.40;;
32094;SDS011;18608;53.688;10.748;2022-08-21T08:22:35;3.00;;;1.50;;
32094;SDS011;18608;53.688;10.748;2022-08-21T08:25:03;9.40;;;1.70;;
32094;SDS011;18608;53.688;10.748;2022-08-21T08:27:29;5.73;;;2.10;;
32094;SDS011;18608;53.688;10.748;2022-08-21T08:29:55;7.03;;;1.50;;
32094;SDS011;18608;53.688;10.748;2022-08-21T08:32:21;4.63;;;1.67;;
32094;SDS011;18608;53.688;10.748;2022-08-21T08:34:48;9.57;;;2.03;;
32094;SDS011;18608;53.688;10.748;2022-08-21T08:37:16;3.27;;;1.80;;
32094;SDS011;18608;53.688;10.748;2022-08-21T08:39:43;5.20;;;1.90;;
32094;SDS011;18608;53.688;10.748;2022-08-21T08:44:35;6.73;;;1.80;;
32094;SDS011;18608;53.688;10.748;2022-08-21T08:47:02;6.63;;;1.90;;
32094;SDS011;18608;53.688;10.748;2022-08-21T08:49:30;5.03;;;1.20;;
32094;SDS011;18608;53.688;10.748;2022-08-21T08:52:11;7.57;;;2.10;;
32094;SDS011;18608;53.688;10.748;2022-08-21T08:54:42;3.70;;;1.87;;
32094;SDS011;18608;53.688;10.748;2022-08-21T08:57:17;5.07;;;1.60;;
32094;SDS011;18608;53.688;10.748;2022-08-21T08:59:46;3.67;;;1.60;;
32094;SDS011;18608;53.688;10.748;2022-08-21T09:02:15;5.37;;;1.70;;
32094;SDS011;18608;53.688;10.748;2022-08-21T09:04:42;3.10;;;1.67;;
32094;SDS011;18608;53.688;10.748;2022-08-21T09:23:09;14.53;;;2.67;;
32094;SDS011;18608;53.688;10.748;2022-08-21T09:25:46;5.40;;;1.90;;
32094;SDS011;18608;53.688;10.748;2022-08-21T09:28:14;6.10;;;1.50;;
32094;SDS011;18608;53.688;10.748;2022-08-21T09:30:40;2.40;;;1.50;;
32094;SDS011;18608;53.688;10.748;2022-08-21T09:33:06;4.57;;;1.80;;
32094;SDS011;18608;53.688;10.748;2022-08-21T09:35:34;5.43;;;1.33;;
32094;SDS011;18608;53.688;10.748;2022-08-21T09:38:03;5.23;;;1.47;;
32094;SDS011;18608;53.688;10.748;2022-08-21T09:43:05;8.63;;;1.83;;
32094;SDS011;18608;53.688;10.748;2022-08-21T09:45:31;7.70;;;1.80;;
32094;SDS011;18608;53.688;10.748;2022-08-21T09:48:14;2.80;;;1.77;;
32094;SDS011;18608;53.688;10.748;2022-08-21T09:50:43;2.03;;;1.70;;
32094;SDS011;18608;53.688;10.748;2022-08-21T09:53:17;4.50;;;1.80;;
32094;SDS011;18608;53.688;10.748;2022-08-21T09:55:53;3.83;;;1.40;;
32094;SDS011;18608;53.688;10.748;2022-08-21T09:58:43;1.57;;;1.40;;
32094;SDS011;18608;53.688;10.748;2022-08-21T10:01:13;2.87;;;1.77;;
32094;SDS011;18608;53.688;10.748;2022-08-21T10:03:41;2.73;;;1.97;;
32094;SDS011;18608;53.688;10.748;2022-08-21T10:06:07;5.27;;;1.40;;
32094;SDS011;18608;53.688;10.748;2022-08-21T10:08:36;3.73;;;2.43;;
32094;SDS011;18608;53.688;10.748;2022-08-21T10:11:04;4.43;;;1.50;;
32094;SDS011;18608;53.688;10.748;2022-08-21T10:19:05;2.07;;;1.80;;
32094;SDS011;18608;53.688;10.748;2022-08-21T10:35:35;8.47;;;2.20;;
32094;SDS011;18608;53.688;10.748;2022-08-21T10:46:31;4.43;;;1.90;;
32094;SDS011;18608;53.688;10.748;2022-08-21T10:55:10;6.60;;;2.33;;
32094;SDS011;18608;53.688;10.748;2022-08-21T11:00:26;12.20;;;3.03;;
32094;SDS011;18608;53.688;10.748;2022-08-21T11:03:01;3.73;;;2.63;;
32094;SDS011;18608;53.688;10.748;2022-08-21T11:05:54;3.83;;;2.27;;
32094;SDS011;18608;53.688;10.748;2022-08-21T11:08:29;7.20;;;2.40;;
32094;SDS011;18608;53.688;10.748;2022-08-21T11:13:43;4.50;;;1.80;;
32094;SDS011;18608;53.688;10.748;2022-08-21T11:21:52;9.20;;;2.37;;
32094;SDS011;18608;53.688;10.748;2022-08-21T11:29:40;8.10;;;1.70;;
32094;SDS011;18608;53.688;10.748;2022-08-21T11:35:20;7.03;;;2.20;;
32094;SDS011;18608;53.688;10.748;2022-08-21T11:40:44;2.50;;;2.00;;
32094;SDS011;18608;53.688;10.748;2022-08-21T11:43:27;2.40;;;1.60;;
32094;SDS011;18608;53.688;10.748;2022-08-21T12:00:17;3.10;;;2.37;;
32094;SDS011;18608;53.688;10.748;2022-08-21T12:02:56;6.17;;;2.47;;
32094;SDS011;18608;53.688;10.748;2022-08-21T12:05:33;5.03;;;2.90;;
32094;SDS011;18608;53.688;10.748;2022-08-21T12:08:12;6.27;;;2.33;;
32094;SDS011;18608;53.688;10.748;2022-08-21T12:10:41;7.93;;;2.13;;
32094;SDS011;18608;53.688;10.748;2022-08-21T12:13:25;4.03;;;2.40;;
32094;SDS011;18608;53.688;10.748;2022-08-21T12:16:05;13.97;;;2.20;;
32094;SDS011;18608;53.688;10.748;2022-08-21T12:18:31;4.73;;;2.50;;
32094;SDS011;18608;53.688;10.748;2022-08-21T12:21:03;5.57;;;2.37;;
32094;SDS011;18608;53.688;10.748;2022-08-21T12:23:49;5.53;;;2.47;;
32094;SDS011;18608;53.688;10.748;2022-08-21T12:26:47;8.20;;;2.60;;
32094;SDS011;18608;53.688;10.748;2022-08-21T12:29:20;6.53;;;2.77;;
32094;SDS011;18608;53.688;10.748;2022-08-21T12:34:32;4.70;;;2.20;;
32094;SDS011;18608;53.688;10.748;2022-08-21T12:37:18;6.33;;;2.77;;
32094;SDS011;18608;53.688;10.748;2022-08-21T12:42:42;13.27;;;3.40;;
32094;SDS011;18608;53.688;10.748;2022-08-21T12:45:28;3.60;;;2.90;;
32094;SDS011;18608;53.688;10.748;2022-08-21T12:53:46;2.43;;;2.23;;
32094;SDS011;18608;53.688;10.748;2022-08-21T12:56:15;4.00;;;2.27;;
32094;SDS011;18608;53.688;10.748;2022-08-21T12:58:45;9.03;;;2.10;;
32094;SDS011;18608;53.688;10.748;2022-08-21T13:01:47;7.13;;;2.67;;
32094;SDS011;18608;53.688;10.748;2022-08-21T13:04:16;3.13;;;2.10;;
32094;SDS011;18608;53.688;10.748;2022-08-21T13:06:48;6.63;;;2.10;;
32094;SDS011;18608;53.688;10.748;2022-08-21T13:09:19;5.40;;;2.43;;
32094;SDS011;18608;53.688;10.748;2022-08-21T13:11:48;6.50;;;2.67;;
32094;SDS011;18608;53.688;10.748;2022-08-21T13:14:28;3.50;;;2.40;;
32094;SDS011;18608;53.688;10.748;2022-08-21T13:16:58;5.87;;;2.30;;
32094;SDS011;18608;53.688;10.748;2022-08-21T13:19:25;2.43;;;2.10;;
32094;SDS011;18608;53.688;10.748;2022-08-21T13:21:51;3.43;;;1.93;;
32094;SDS011;18608;53.688;10.748;2022-08-21T13:24:26;3.43;;;2.60;;
32094;SDS011;18608;53.688;10.748;2022-08-21T13:27:00;4.73;;;2.60;;
32094;SDS011;18608;53.688;10.748;2022-08-21T13:29:30;3.47;;;2.53;;
32094;SDS011;18608;53.688;10.748;2022-08-21T13:32:00;6.43;;;2.20;;
32094;SDS011;18608;53.688;10.748;2022-08-21T13:34:32;3.87;;;2.90;;
32094;SDS011;18608;53.688;10.748;2022-08-21T13:37:04;4.67;;;2.10;;
32094;SDS011;18608;53.688;10.748;2022-08-21T13:39:32;6.70;;;2.23;;
32094;SDS011;18608;53.688;10.748;2022-08-21T13:42:00;2.43;;;2.20;;
32094;SDS011;18608;53.688;10.748;2022-08-21T13:47:01;2.87;;;2.37;;
32094;SDS011;18608;53.688;10.748;2022-08-21T13:49:33;3.13;;;2.53;;
32094;SDS011;18608;53.688;10.748;2022-08-21T13:52:04;5.90;;;2.17;;
32094;SDS011;18608;53.688;10.748;2022-08-21T13:54:42;4.03;;;1.90;;
32094;SDS011;18608;53.688;10.748;2022-08-21T13:57:16;5.63;;;2.27;;
32094;SDS011;18608;53.688;10.748;2022-08-21T13:59:43;3.93;;;2.00;;
32094;SDS011;18608;53.688;10.748;2022-08-21T14:02:11;2.93;;;2.03;;
32094;SDS011;18608;53.688;10.748;2022-08-21T14:04:43;2.10;;;1.63;;
32094;SDS011;18608;53.688;10.748;2022-08-21T14:07:40;4.20;;;1.87;;
32094;SDS011;18608;53.688;10.748;2022-08-21T14:12:41;3.17;;;1.97;;
32094;SDS011;18608;53.688;10.748;2022-08-21T14:15:13;1.70;;;1.60;;
32094;SDS011;18608;53.688;10.748;2022-08-21T14:17:41;3.57;;;1.97;;
32094;SDS011;18608;53.688;10.748;2022-08-21T14:20:09;1.50;;;1.40;;
32094;SDS011;18608;53.688;10.748;2022-08-21T14:22:50;3.63;;;1.70;;
32094;SDS011;18608;53.688;10.748;2022-08-21T14:30:28;6.13;;;2.60;;
32094;SDS011;18608;53.688;10.748;2022-08-21T14:32:55;6.37;;;1.80;;
32094;SDS011;18608;53.688;10.748;2022-08-21T14:35:22;7.90;;;3.73;;
32094;SDS011;18608;53.688;10.748;2022-08-21T14:37:48;3.50;;;1.93;;
32094;SDS011;18608;53.688;10.748;2022-08-21T14:40:17;1.63;;;1.47;;
32094;SDS011;18608;53.688;10.748;2022-08-21T14:42:44;2.47;;;1.53;;
32094;SDS011;18608;53.688;10.748;2022-08-21T14:47:43;4.77;;;1.43;;
32094;SDS011;18608;53.688;10.748;2022-08-21T14:50:10;4.30;;;1.83;;
32094;SDS011;18608;53.688;10.748;2022-08-21T14:52:37;2.60;;;1.50;;
32094;SDS011;18608;53.688;10.748;2022-08-21T14:55:04;3.40;;;1.57;;
32094;SDS011;18608;53.688;10.748;2022-08-21T14:57:32;2.77;;;1.90;;
32094;SDS011;18608;53.688;10.748;2022-08-21T14:59:58;1.50;;;1.40;;
32094;SDS011;18608;53.688;10.748;2022-08-21T15:02:24;2.90;;;1.53;;
32094;SDS011;18608;53.688;10.748;2022-08-21T15:04:50;2.10;;;1.90;;
32094;SDS011;18608;53.688;10.748;2022-08-21T15:07:16;1.63;;;1.40;;
32094;SDS011;18608;53.688;10.748;2022-08-21T15:09:41;5.53;;;2.13;;
32094;SDS011;18608;53.688;10.748;2022-08-21T15:12:07;4.17;;;1.63;;
32094;SDS011;18608;53.688;10.748;2022-08-21T15:14:34;4.10;;;1.90;;
32094;SDS011;18608;53.688;10.748;2022-08-21T15:17:03;3.67;;;1.30;;
32094;SDS011;18608;53.688;10.748;2022-08-21T15:19:30;5.03;;;2.20;;
32094;SDS011;18608;53.688;10.748;2022-08-21T15:21:56;4.40;;;1.67;;
32094;SDS011;18608;53.688;10.748;2022-08-21T15:24:23;3.93;;;1.77;;
32094;SDS011;18608;53.688;10.748;2022-08-21T15:26:48;1.87;;;1.33;;
32094;SDS011;18608;53.688;10.748;2022-08-21T15:29:15;2.00;;;1.60;;
32094;SDS011;18608;53.688;10.748;2022-08-21T15:31:51;1.30;;;1.20;;
32094;SDS011;18608;53.688;10.748;2022-08-21T15:34:22;3.30;;;1.70;;
32094;SDS011;18608;53.688;10.748;2022-08-21T15:36:48;1.87;;;1.40;;
32094;SDS011;18608;53.688;10.748;2022-08-21T15:39:14;1.23;;;1.13;;
32094;SDS011;18608;53.688;10.748;2022-08-21T15:41:39;1.60;;;1.50;;
32094;SDS011;18608;53.688;10.748;2022-08-21T15:44:05;3.17;;;1.37;;
32094;SDS011;18608;53.688;10.748;2022-08-21T15:46:31;2.50;;;2.07;;
32094;SDS011;18608;53.688;10.748;2022-08-21T15:48:56;2.50;;;1.53;;
32094;SDS011;18608;53.688;10.748;2022-08-21T15:51:22;2.17;;;1.50;;
32094;SDS011;18608;53.688;10.748;2022-08-21T15:53:48;3.60;;;1.50;;
32094;SDS011;18608;53.688;10.748;2022-08-21T15:58:44;5.17;;;2.10;;
32094;SDS011;18608;53.688;10.748;2022-08-21T16:01:10;3.40;;;1.63;;
32094;SDS011;18608;53.688;10.748;2022-08-21T16:03:36;9.43;;;1.63;;
32094;SDS011;18608;53.688;10.748;2022-08-21T16:06:01;2.30;;;1.37;;
32094;SDS011;18608;53.688;10.748;2022-08-21T16:08:27;4.13;;;1.57;;
32094;SDS011;18608;53.688;10.748;2022-08-21T16:10:52;3.50;;;1.63;;
32094;SDS011;18608;53.688;10.748;2022-08-21T16:13:22;3.30;;;1.33;;
32094;SDS011;18608;53.688;10.748;2022-08-21T16:15:53;3.90;;;1.20;;
32094;SDS011;18608;53.688;10.748;2022-08-21T16:18:20;2.00;;;1.37;;
32094;SDS011;18608;53.688;10.748;2022-08-21T16:20:47;2.43;;;1.43;;
32094;SDS011;18608;53.688;10.748;2022-08-21T16:23:13;1.83;;;1.37;;
32094;SDS011;18608;53.688;10.748;2022-08-21T16:25:39;1.27;;;1.17;;
32094;SDS011;18608;53.688;10.748;2022-08-21T16:28:06;3.47;;;1.10;;
32094;SDS011;18608;53.688;10.748;2022-08-21T16:30:34;2.03;;;1.40;;
32094;SDS011;18608;53.688;10.748;2022-08-21T16:33:00;2.80;;;1.50;;
32094;SDS011;18608;53.688;10.748;2022-08-21T16:35:27;2.30;;;1.03;;
32094;SDS011;18608;53.688;10.748;2022-08-21T16:37:53;3.10;;;1.27;;
32094;SDS011;18608;53.688;10.748;2022-08-21T16:40:20;7.20;;;1.37;;
32094;SDS011;18608;53.688;10.748;2022-08-21T16:42:51;1.27;;;1.10;;
32094;SDS011;18608;53.688;10.748;2022-08-21T16:45:17;4.77;;;1.73;;